Time;durP1;ratioP1;P1;durP2;ratioP2;P2;SDS_P1;SDS_P2;PMS_P1;PMS_P2;Temp;Humidity;BMP_temperature;BMP_pressure;BME280_temperature;BME280_humidity;BME280_pressure;Samples;Min_cycle;Max_cycle;Signal;HPM_P1;HPM_P2
2022/04/08 00:00:09;;;;;;;11.85;1.50;;;;;;;10.41;55.26;99958.19;5065572;28;20074;-59
2022/04/08 00:02:38;;;;;;;9.70;1.38;;;;;;;10.39;55.73;99954.16;5072460;28;20170;-56
2022/04/08 00:05:09;;;;;;;9.13;1.80;;;;;;;10.42;55.91;99954.31;5089243;28;20056;-58
2022/04/08 00:07:36;;;;;;;8.00;1.58;;;;;;;10.44;54.85;99954.78;5071768;28;20052;-59
2022/04/08 00:10:04;;;;;;;9.15;1.20;;;;;;;10.23;55.12;99949.19;5068817;28;20045;-57
2022/04/08 00:12:32;;;;;;;13.55;1.67;;;;;;;10.02;56.16;99951.00;5063112;28;20049;-61
2022/04/08 00:14:59;;;;;;;9.60;1.42;;;;;;;10.25;55.24;99957.16;5074806;28;20053;-61
2022/04/08 00:17:26;;;;;;;9.80;1.90;;;;;;;10.25;55.30;99950.81;5073258;28;20059;-62
2022/04/08 00:19:53;;;;;;;10.55;1.70;;;;;;;10.35;55.17;99948.50;5060925;28;20056;-62
2022/04/08 00:22:26;;;;;;;9.93;1.50;;;;;;;10.42;56.90;99935.03;5070723;28;20057;-63
2022/04/08 00:24:56;;;;;;;8.32;1.40;;;;;;;10.29;56.05;99930.56;5073387;28;20056;-63
2022/04/08 00:27:24;;;;;;;9.30;1.90;;;;;;;10.21;55.50;99928.66;5059650;28;20538;-63
2022/04/08 00:29:52;;;;;;;7.53;1.30;;;;;;;10.44;56.50;99934.69;5073353;28;20053;-63
2022/04/08 00:32:19;;;;;;;8.35;1.40;;;;;;;10.29;55.97;99930.56;5088152;28;20048;-59
2022/04/08 00:34:46;;;;;;;10.63;1.40;;;;;;;10.46;56.24;99924.97;5074384;28;20480;-56
2022/04/08 00:37:14;;;;;;;7.45;1.48;;;;;;;10.54;56.08;99928.81;5074154;28;20523;-59
2022/04/08 00:39:41;;;;;;;11.82;1.48;;;;;;;10.40;56.62;99929.06;5066411;28;20056;-60
2022/04/08 00:42:08;;;;;;;7.97;1.40;;;;;;;10.31;57.03;99922.78;5061218;28;20053;-58
2022/04/08 00:44:36;;;;;;;11.05;1.80;;;;;;;10.47;56.22;99917.50;5073716;28;20051;-58
2022/04/08 00:47:04;;;;;;;5.82;1.40;;;;;;;10.47;56.84;99920.25;5072139;28;20052;-61
2022/04/08 00:49:36;;;;;;;9.13;1.70;;;;;;;10.65;56.86;99922.59;5066252;28;20060;-57
2022/04/08 00:52:04;;;;;;;8.57;1.50;;;;;;;10.51;56.61;99919.28;5074277;28;20053;-60
2022/04/08 00:54:32;;;;;;;9.73;1.50;;;;;;;10.69;56.33;99922.72;5071382;28;20041;-58
2022/04/08 00:56:59;;;;;;;14.63;1.55;;;;;;;10.62;56.01;99915.00;5074093;28;20550;-63
2022/04/08 00:59:36;;;;;;;7.80;1.40;;;;;;;10.66;56.49;99918.72;5074712;28;20507;-63
2022/04/08 01:02:15;;;;;;;13.48;1.60;;;;;;;10.67;56.01;99903.78;5074883;28;20055;-63
2022/04/08 01:04:53;;;;;;;;;;;;;;;;;;;;;
2022/04/08 01:07:31;;;;;;;7.53;1.17;;;;;;;10.83;55.50;99902.06;5076904;28;20048;-57
2022/04/08 01:10:04;;;;;;;7.28;1.85;;;;;;;10.76;56.49;99900.97;5049332;28;20045;-57
2022/04/08 01:12:31;;;;;;;9.73;1.83;;;;;;;10.94;56.12;99900.53;5077203;28;20044;-58
2022/04/08 01:14:59;;;;;;;9.00;2.08;;;;;;;10.98;55.34;99903.44;5076890;28;20124;-58
2022/04/08 01:17:26;;;;;;;13.88;2.92;;;;;;;11.04;55.00;99894.63;5077015;28;20052;-59
2022/04/08 01:19:54;;;;;;;15.63;2.58;;;;;;;10.83;55.39;99895.75;5063135;28;20491;-59
2022/04/08 01:22:21;;;;;;;13.88;1.90;;;;;;;10.63;56.22;99888.28;5077979;28;20049;-58
2022/04/08 01:24:49;;;;;;;14.75;4.93;;;;;;;10.73;55.94;99891.44;5077754;28;20135;-57
2022/04/08 01:27:19;;;;;;;13.95;2.95;;;;;;;10.71;55.71;99885.47;5076623;28;20056;-57
2022/04/08 01:29:47;;;;;;;13.93;2.80;;;;;;;10.81;55.57;99890.56;5059453;28;20049;-58
2022/04/08 01:32:15;;;;;;;16.30;3.60;;;;;;;10.81;55.29;99887.81;5070073;28;20044;-62
2022/04/08 01:34:44;;;;;;;12.77;1.95;;;;;;;10.72;56.59;99889.03;5077396;28;20057;-62
2022/04/08 01:37:11;;;;;;;10.00;1.25;;;;;;;10.61;56.03;99885.84;5076721;28;20051;-61
2022/04/08 01:39:40;;;;;;;8.98;1.40;;;;;;;10.61;55.67;99883.09;5077673;28;20048;-63
2022/04/08 01:42:08;;;;;;;10.80;1.48;;;;;;;10.72;57.19;99887.06;5074817;28;20053;-63
2022/04/08 01:44:36;;;;;;;9.43;1.35;;;;;;;10.72;56.84;99889.81;5077495;28;20537;-62
2022/04/08 01:47:04;;;;;;;7.60;1.45;;;;;;;10.61;56.74;99883.09;5075327;28;20558;-63
2022/04/08 01:49:31;;;;;;;10.35;1.73;;;;;;;10.67;56.97;99884.50;5074020;28;20430;-61
2022/04/08 01:51:58;;;;;;;8.13;1.35;;;;;;;10.66;56.61;99873.81;5074116;28;20407;-62
2022/04/08 01:54:26;;;;;;;10.18;1.63;;;;;;;10.83;55.28;99874.50;5071570;28;20057;-62
2022/04/08 01:56:53;;;;;;;11.98;1.80;;;;;;;10.75;55.81;99871.81;5077069;28;20408;-62
2022/04/08 01:59:20;;;;;;;13.15;1.45;;;;;;;10.75;56.93;99867.13;5077080;28;20048;-62
2022/04/08 02:01:47;;;;;;;9.82;1.63;;;;;;;10.84;56.61;99867.06;5077051;28;20052;-55
2022/04/08 02:04:16;;;;;;;16.40;2.75;;;;;;;10.70;56.34;99861.00;5079243;28;20118;-57
2022/04/08 02:06:43;;;;;;;8.95;2.03;;;;;;;10.55;56.37;99862.41;5086784;28;20063;-56
2022/04/08 02:09:12;;;;;;;8.50;1.40;;;;;;;10.46;56.81;99858.88;5072499;28;20487;-54
2022/04/08 02:11:39;;;;;;;10.15;1.40;;;;;;;10.54;56.63;99863.53;5065867;28;20492;-58
2022/04/08 02:14:08;;;;;;;11.68;1.88;;;;;;;10.70;56.10;99864.56;5072430;28;20060;-59
2022/04/08 02:16:35;;;;;;;9.10;2.00;;;;;;;10.57;56.38;99870.31;5076591;28;20495;-58
2022/04/08 02:19:03;;;;;;;10.63;1.58;;;;;;;10.36;57.12;99863.97;5076559;28;20048;-58
2022/04/08 02:21:31;;;;;;;9.98;1.35;;;;;;;10.42;57.00;99854.38;5075514;28;20393;-59
2022/04/08 02:23:59;;;;;;;6.60;1.38;;;;;;;10.44;57.37;99854.88;5076060;28;20059;-58
2022/04/08 02:26:28;;;;;;;7.95;1.42;;;;;;;10.61;56.93;99847.31;5076617;28;20048;-55
2022/04/08 02:28:55;;;;;;;9.93;1.63;;;;;;;10.55;57.09;99845.88;5059129;28;20048;-59
2022/04/08 02:31:23;;;;;;;9.38;1.65;;;;;;;10.46;57.70;99842.38;5076602;28;20053;-56
2022/04/08 02:33:50;;;;;;;11.63;1.30;;;;;;;10.26;58.77;99843.16;5076301;28;20053;-57
2022/04/08 02:36:18;;;;;;;10.18;1.90;;;;;;;10.30;58.43;99840.53;5076220;28;20053;-59
2022/04/08 02:38:45;;;;;;;7.57;1.42;;;;;;;10.37;58.23;99849.06;5070408;28;20045;-58
2022/04/08 02:41:12;;;;;;;9.65;1.67;;;;;;;10.34;58.37;99836.00;5074172;28;20064;-60
2022/04/08 02:43:43;;;;;;;10.48;1.90;;;;;;;10.39;58.49;99836.56;5075949;28;20040;-62
2022/04/08 02:46:13;;;;;;;10.27;2.03;;;;;;;10.47;58.09;99832.16;5078126;28;20052;-62
2022/04/08 02:48:40;;;;;;;7.15;1.65;;;;;;;10.68;58.10;99830.25;5085797;28;20504;-62
2022/04/08 02:51:08;;;;;;;11.43;1.67;;;;;;;10.46;58.77;99828.59;5080423;28;20044;-63
2022/04/08 02:53:35;;;;;;;10.07;1.30;;;;;;;10.37;59.06;99832.56;5085569;28;20044;-62
2022/04/08 02:56:02;;;;;;;7.80;1.70;;;;;;;10.42;58.79;99827.69;5075190;28;20045;-62
2022/04/08 02:58:29;;;;;;;9.63;1.42;;;;;;;10.16;59.78;99825.06;5075030;28;20059;-62
2022/04/08 03:00:59;;;;;;;13.43;1.73;;;;;;;10.28;59.50;99829.06;5076317;28;20048;-63
2022/04/08 03:03:30;;;;;;;14.02;1.88;;;;;;;10.30;59.68;99816.59;5088551;28;20039;-61
2022/04/08 03:05:58;;;;;;;7.80;1.80;;;;;;;10.29;60.01;99822.44;5076104;28;20048;-61
2022/04/08 03:08:26;;;;;;;9.23;1.55;;;;;;;10.58;59.05;99812.19;5074946;28;20052;-62
2022/04/08 03:10:54;;;;;;;13.63;2.05;;;;;;;10.49;58.99;99813.38;5063188;28;20063;-63
2022/04/08 03:13:21;;;;;;;10.60;1.55;;;;;;;10.57;58.93;99807.81;5075806;28;20384;-62
2022/04/08 03:15:48;;;;;;;13.52;2.45;;;;;;;10.60;59.01;99807.13;5075892;28;20049;-62
2022/04/08 03:18:15;;;;;;;11.45;2.08;;;;;;;10.63;58.88;99808.41;5075374;28;20059;-60
2022/04/08 03:20:43;;;;;;;12.27;2.00;;;;;;;10.73;59.04;99808.81;5075618;28;20064;-59
2022/04/08 03:23:11;;;;;;;10.38;1.65;;;;;;;10.86;59.47;99798.66;5075431;28;20063;-60
2022/04/08 03:25:38;;;;;;;10.82;2.00;;;;;;;10.71;60.16;99799.25;5074464;28;20044;-57
2022/04/08 03:28:06;;;;;;;9.18;1.80;;;;;;;10.51;60.96;99800.09;5074824;28;20048;-61
2022/04/08 03:30:33;;;;;;;11.85;1.83;;;;;;;10.61;61.19;99800.50;5073828;28;20048;-61
2022/04/08 03:33:00;;;;;;;12.32;1.42;;;;;;;10.50;62.64;99802.03;5074724;28;20052;-59
2022/04/08 03:35:27;;;;;;;11.90;2.15;;;;;;;10.64;62.67;99807.25;5075006;28;20510;-58
2022/04/08 03:37:55;;;;;;;10.50;2.08;;;;;;;10.77;62.78;99795.19;5071482;28;20435;-58
2022/04/08 03:40:23;;;;;;;11.38;2.00;;;;;;;10.50;64.54;99799.28;5075451;28;20049;-60
2022/04/08 03:42:50;;;;;;;15.00;1.80;;;;;;;10.68;64.97;99800.75;5065582;28;20056;-62
2022/04/08 03:45:17;;;;;;;12.00;2.03;;;;;;;10.66;65.39;99785.69;5073888;28;20049;-62
2022/04/08 03:47:44;;;;;;;14.05;2.05;;;;;;;10.62;66.08;99779.25;5075608;28;20053;-61
2022/04/08 03:50:11;;;;;;;12.43;1.98;;;;;;;10.57;66.81;99777.50;5067986;28;20052;-61
2022/04/08 03:52:39;;;;;;;11.50;1.98;;;;;;;10.43;67.66;99765.97;5074680;28;20049;-63
2022/04/08 03:55:07;;;;;;;14.48;2.13;;;;;;;10.43;68.29;99754.94;5074834;28;20052;-62
2022/04/08 03:57:34;;;;;;;13.70;2.30;;;;;;;10.55;68.10;99756.97;5074117;28;20060;-58
2022/04/08 04:00:02;;;;;;;17.33;1.98;;;;;;;10.36;69.22;99745.59;5073743;28;20047;-59
2022/04/08 04:02:33;;;;;;;10.45;1.48;;;;;;;10.44;69.43;99728.22;5074660;28;20052;-60
2022/04/08 04:05:00;;;;;;;13.18;2.17;;;;;;;10.63;69.27;99734.06;5074867;28;20040;-59
2022/04/08 04:07:28;;;;;;;15.05;1.85;;;;;;;10.48;69.47;99729.97;5074018;28;20060;-58
2022/04/08 04:09:55;;;;;;;11.75;1.75;;;;;;;10.55;69.09;99723.94;5074725;28;20560;-59
2022/04/08 04:12:23;;;;;;;9.77;2.15;;;;;;;10.36;69.89;99718.06;5057129;28;20391;-57
2022/04/08 04:14:50;;;;;;;15.63;2.45;;;;;;;10.42;69.88;99709.31;5074874;28;20056;-59
2022/04/08 04:17:18;;;;;;;13.50;2.28;;;;;;;10.40;70.28;99699.75;5074561;28;20048;-59
2022/04/08 04:19:46;;;;;;;19.35;2.83;;;;;;;10.33;70.73;99696.75;5072777;28;20060;-61
2022/04/08 04:22:13;;;;;;;18.23;2.28;;;;;;;10.38;71.09;99697.34;5073757;28;20044;-57
2022/04/08 04:24:40;;;;;;;14.65;2.08;;;;;;;10.27;71.14;99687.09;5074609;28;20045;-59
2022/04/08 04:27:07;;;;;;;12.98;1.95;;;;;;;10.50;70.74;99682.81;5074656;28;20052;-60
2022/04/08 04:29:35;;;;;;;9.52;1.45;;;;;;;10.38;70.97;99691.84;5073070;28;20496;-57
2022/04/08 04:32:03;;;;;;;14.82;2.00;;;;;;;10.24;71.41;99674.78;5089898;28;20507;-60
2022/04/08 04:34:32;;;;;;;13.98;2.10;;;;;;;10.36;71.23;99674.03;5074713;28;20051;-60
2022/04/08 04:37:00;;;;;;;14.55;2.75;;;;;;;10.14;72.17;99662.25;5063401;28;20052;-56
2022/04/08 04:39:27;;;;;;;11.45;2.25;;;;;;;10.35;71.81;99665.00;5074698;28;20053;-61
2022/04/08 04:41:54;;;;;;;13.35;2.13;;;;;;;10.05;72.25;99656.00;5071244;28;20053;-62
2022/04/08 04:44:21;;;;;;;18.02;2.63;;;;;;;10.14;71.84;99661.44;5075122;28;20061;-57
2022/04/08 04:46:49;;;;;;;9.65;1.83;;;;;;;10.17;71.94;99649.75;5078594;28;20055;-55
2022/04/08 04:49:16;;;;;;;13.07;2.20;;;;;;;10.11;71.77;99640.91;5078524;28;20048;-59
2022/04/08 04:51:43;;;;;;;10.60;2.30;;;;;;;10.12;71.96;99637.03;5078198;28;20500;-60
2022/04/08 04:54:11;;;;;;;9.43;1.90;;;;;;;10.28;71.38;99628.13;5078656;28;20052;-59
2022/04/08 04:56:38;;;;;;;9.60;2.10;;;;;;;10.19;71.70;99617.22;5078361;28;20052;-62
2022/04/08 04:59:05;;;;;;;10.40;2.80;;;;;;;10.16;72.60;99609.63;5078617;28;20059;-59
2022/04/08 05:01:32;;;;;;;10.25;2.13;;;;;;;10.18;72.54;99605.38;5078300;28;20036;-58
2022/04/08 05:04:00;;;;;;;12.90;2.30;;;;;;;10.36;72.19;99608.78;5076499;28;20057;-60
2022/04/08 05:06:28;;;;;;;13.23;1.92;;;;;;;10.33;71.94;99597.66;5076747;28;20049;-59
2022/04/08 05:08:55;;;;;;;17.85;2.75;;;;;;;9.83;73.05;99584.00;5055067;28;20064;-58
2022/04/08 05:11:22;;;;;;;12.95;2.13;;;;;;;9.84;74.01;99582.84;5078238;28;20052;-58
2022/04/08 05:13:50;;;;;;;13.40;2.40;;;;;;;9.97;73.62;99570.78;5078336;28;20052;-62
2022/04/08 05:16:17;;;;;;;14.48;2.33;;;;;;;10.02;73.31;99559.56;5078039;28;20040;-61
2022/04/08 05:18:45;;;;;;;11.65;2.95;;;;;;;9.87;73.71;99565.66;5077834;28;20059;-62
2022/04/08 05:21:12;;;;;;;13.90;2.78;;;;;;;9.84;73.63;99561.66;5077654;28;20060;-61
2022/04/08 05:23:40;;;;;;;12.50;1.80;;;;;;;9.74;73.50;99553.00;5072802;28;20049;-61
2022/04/08 05:26:07;;;;;;;11.25;2.22;;;;;;;9.88;73.57;99550.78;5090970;28;20044;-63
2022/04/08 05:28:34;;;;;;;11.82;2.20;;;;;;;10.13;72.64;99552.50;5077111;28;20056;-57
2022/04/08 05:31:02;;;;;;;14.65;2.42;;;;;;;10.33;71.94;99543.41;5077632;28;20044;-63
2022/04/08 05:33:29;;;;;;;11.55;2.47;;;;;;;10.22;72.14;99549.69;5077604;28;20052;-62
2022/04/08 05:35:57;;;;;;;11.32;2.45;;;;;;;10.03;73.05;99539.97;5075648;28;20056;-62
2022/04/08 05:38:24;;;;;;;6.00;2.10;;;;;;;10.05;73.34;99525.88;5074325;28;20059;-63
2022/04/08 05:40:51;;;;;;;12.02;2.25;;;;;;;10.02;73.44;99527.34;5077440;28;20436;-62
2022/04/08 05:43:19;;;;;;;11.77;2.67;;;;;;;9.92;74.34;99525.00;5076176;28;20049;-62
2022/04/08 05:45:46;;;;;;;9.50;2.15;;;;;;;9.89;74.48;99514.69;5077488;28;20045;-62
2022/04/08 05:48:13;;;;;;;9.88;2.10;;;;;;;10.02;74.46;99510.81;5076885;28;20060;-61
2022/04/08 05:50:41;;;;;;;17.33;2.33;;;;;;;9.93;74.29;99503.81;5076984;28;20071;-63
2022/04/08 05:53:08;;;;;;;14.90;5.72;;;;;;;9.88;74.80;99501.28;5076361;28;20423;-62
2022/04/08 05:55:56;;;;;;;11.25;2.50;;;;;;;9.87;74.88;99499.66;5059947;28;20061;-63
2022/04/08 05:58:24;;;;;;;9.38;2.10;;;;;;;9.85;74.52;99485.47;5072506;28;20048;-62
2022/04/08 06:00:51;;;;;;;8.63;2.08;;;;;;;9.88;74.33;99479.28;5083781;28;20044;-62
2022/04/08 06:03:19;;;;;;;9.10;1.73;;;;;;;9.83;75.17;99482.25;5073356;28;20065;-62
2022/04/08 06:05:53;;;;;;;9.43;2.08;;;;;;;9.85;74.97;99472.50;5077343;28;20052;-63
2022/04/08 06:08:56;;;;;;;15.75;2.72;;;;;;;9.54;76.77;99474.09;5075842;28;20059;-63
2022/04/08 06:11:23;;;;;;;36.05;19.50;;;;;;;9.70;76.94;99461.34;5061768;28;20060;-61
2022/04/08 06:13:51;;;;;;;8.73;2.28;;;;;;;9.43;77.31;99453.66;5077018;28;20078;-63
2022/04/08 06:16:23;;;;;;;8.93;2.10;;;;;;;9.58;77.71;99450.28;5054467;28;20060;-62
2022/04/08 06:18:50;;;;;;;13.55;2.60;;;;;;;9.63;77.19;99430.84;5074259;28;20117;-63
2022/04/08 06:21:17;;;;;;;14.45;2.45;;;;;;;9.41;79.20;99434.78;5060380;28;20059;-63
2022/04/08 06:23:46;;;;;;;10.63;2.28;;;;;;;9.54;78.93;99430.91;5076941;28;20056;-63
2022/04/08 06:26:15;;;;;;;13.65;2.40;;;;;;;9.41;78.67;99417.47;5070376;28;20063;-63
2022/04/08 06:28:42;;;;;;;10.63;2.15;;;;;;;9.34;78.93;99411.72;5068990;28;20057;-63
2022/04/08 06:31:10;;;;;;;8.88;2.28;;;;;;;9.34;78.32;99407.03;5070282;28;20047;-61
2022/04/08 06:33:43;;;;;;;7.85;2.05;;;;;;;9.31;78.20;99404.16;5076175;28;20067;-63
2022/04/08 06:36:11;;;;;;;12.13;2.38;;;;;;;9.54;77.80;99397.13;5071779;28;20064;-62
2022/04/08 06:38:38;;;;;;;10.27;1.88;;;;;;;9.46;77.80;99398.03;5066785;28;20111;-62
2022/04/08 06:41:05;;;;;;;18.70;6.30;;;;;;;9.52;78.13;99393.94;5070560;28;20036;-62
2022/04/08 06:43:33;;;;;;;10.23;2.33;;;;;;;9.41;78.81;99396.28;5061385;28;20053;-63
2022/04/08 06:46:00;;;;;;;11.75;2.60;;;;;;;9.29;79.90;99395.44;5074806;28;20405;-62
2022/04/08 06:48:28;;;;;;;11.30;2.78;;;;;;;9.52;79.72;99389.22;5071094;28;20059;-61
2022/04/08 06:50:58;;;;;;;10.27;2.60;;;;;;;9.76;78.53;99383.00;5074355;28;20396;-62
2022/04/08 06:53:25;;;;;;;12.38;2.58;;;;;;;9.79;78.27;99387.81;5075796;28;20063;-61
2022/04/08 06:55:53;;;;;;;8.82;2.20;;;;;;;9.95;78.47;99391.53;5075446;28;20056;-62
2022/04/08 06:58:20;;;;;;;10.95;2.65;;;;;;;10.39;75.89;99387.13;5075257;28;20048;-62
2022/04/08 07:00:47;;;;;;;15.25;2.30;;;;;;;10.44;74.95;99389.63;5065413;28;20048;-62
2022/04/08 07:03:15;;;;;;;9.40;2.20;;;;;;;10.40;73.09;99396.97;5074438;28;20052;-61
2022/04/08 07:05:42;;;;;;;10.95;2.97;;;;;;;10.32;73.52;99395.16;5063401;28;20048;-62
2022/04/08 07:08:09;;;;;;;13.55;4.05;;;;;;;10.32;73.53;99390.41;5073772;28;20049;-61
2022/04/08 07:10:40;;;;;;;10.80;2.80;;;;;;;10.38;72.24;99385.50;5074490;28;20044;-62
2022/04/08 07:13:07;;;;;;;8.45;2.20;;;;;;;10.40;72.69;99381.25;5065210;28;20048;-63
2022/04/08 07:15:35;;;;;;;13.63;3.13;;;;;;;10.42;73.60;99376.22;5073340;28;20071;-61
2022/04/08 07:18:05;;;;;;;13.52;3.20;;;;;;;10.00;75.58;99374.78;5064791;28;20052;-62
2022/04/08 07:20:33;;;;;;;9.00;2.97;;;;;;;10.11;76.18;99365.75;5074812;28;20052;-61
2022/04/08 07:23:01;;;;;;;11.02;2.55;;;;;;;10.42;75.64;99358.88;5074617;28;20048;-63
2022/04/08 07:25:29;;;;;;;12.90;3.45;;;;;;;10.40;75.47;99356.50;5067776;28;20076;-63
2022/04/08 07:28:00;;;;;;;13.50;2.67;;;;;;;10.40;75.20;99341.91;5073631;28;20053;-63
2022/04/08 07:30:28;;;;;;;13.23;3.42;;;;;;;10.45;75.03;99331.47;5073635;28;20526;-62
2022/04/08 07:32:55;;;;;;;14.13;3.28;;;;;;;10.41;74.92;99327.03;5075019;28;20055;-64
2022/04/08 07:35:25;;;;;;;9.48;3.13;;;;;;;10.45;74.05;99325.97;5078708;28;20048;-63
2022/04/08 07:37:53;;;;;;;13.73;3.20;;;;;;;10.14;74.51;99312.81;5090086;28;20487;-63
2022/04/08 07:40:47;;;;;;;9.90;3.08;;;;;;;10.17;74.84;99298.38;5066036;28;20064;-63
2022/04/08 07:43:30;;;;;;;18.80;7.45;;;;;;;9.79;76.74;99286.88;5065827;28;20547;-64
2022/04/08 07:46:06;;;;;;;15.63;4.32;;;;;;;9.98;76.45;99280.81;5063347;28;20075;-62
2022/04/08 07:48:34;;;;;;;14.40;3.42;;;;;;;9.85;76.08;99277.25;5074606;28;20059;-61
2022/04/08 07:51:01;;;;;;;12.40;3.45;;;;;;;10.16;75.42;99271.22;5074747;28;20052;-61
2022/04/08 07:53:32;;;;;;;9.98;3.25;;;;;;;10.00;75.51;99276.56;5075020;28;20043;-64
2022/04/08 07:55:59;;;;;;;10.90;3.20;;;;;;;9.69;76.71;99268.06;5049291;28;20071;-63
2022/04/08 07:58:27;;;;;;;13.73;3.10;;;;;;;9.35;78.46;99256.69;5070841;28;20071;-62
2022/04/08 08:00:54;;;;;;;11.38;3.55;;;;;;;9.24;79.34;99252.78;5073065;28;20048;-65
2022/04/08 08:03:22;;;;;;;13.30;3.47;;;;;;;9.13;80.56;99259.84;5073719;28;20416;-64
2022/04/08 08:06:30;;;;;;;;;;;;;;;;;;;;;
2022/04/08 08:09:13;;;;;;;12.35;3.08;;;;;;;9.22;80.95;99222.91;5075016;28;20036;-63
2022/04/08 08:11:43;;;;;;;17.25;3.72;;;;;;;8.94;81.86;99219.19;5075015;28;20049;-63
2022/04/08 08:14:20;;;;;;;12.88;3.80;;;;;;;8.81;83.55;99228.50;5064780;28;20136;-64
2022/04/08 08:17:58;;;;;;;15.52;3.20;;;;;;;8.77;82.26;99213.88;5069203;28;20059;-62
2022/04/08 08:20:49;;;;;;;10.35;2.65;;;;;;;8.68;82.09;99207.66;5052313;28;20049;-62
2022/04/08 08:23:16;;;;;;;9.65;2.80;;;;;;;8.76;81.60;99210.31;5074758;28;20044;-61
2022/04/08 08:25:44;;;;;;;9.48;2.85;;;;;;;8.85;81.29;99205.53;5075063;28;20056;-62
2022/04/08 08:28:22;;;;;;;10.45;3.17;;;;;;;8.73;81.84;99197.25;5060340;28;20075;-61
2022/04/08 08:30:49;;;;;;;11.98;2.90;;;;;;;8.71;82.45;99180.31;5073007;28;20052;-62
2022/04/08 08:33:17;;;;;;;11.73;3.15;;;;;;;8.68;82.24;99172.75;5061545;28;20052;-62
2022/04/08 08:35:45;;;;;;;10.65;3.00;;;;;;;8.43;84.75;99183.97;5074207;28;20061;-63
2022/04/08 08:38:13;;;;;;;14.25;5.30;;;;;;;8.44;83.88;99177.38;5072721;28;20055;-63
2022/04/08 08:40:43;;;;;;;9.93;2.28;;;;;;;7.96;83.54;99170.47;5077974;28;20408;-62
2022/04/08 08:43:17;;;;;;;7.72;1.88;;;;;;;7.76;83.83;99163.00;5072674;28;20060;-62
2022/04/08 08:45:48;;;;;;;9.73;2.80;;;;;;;7.77;84.07;99170.13;5073975;28;20053;-64
2022/04/08 08:48:22;;;;;;;5.13;1.83;;;;;;;7.59;85.45;99159.56;5073088;28;20053;-63
2022/04/08 08:50:54;;;;;;;5.72;1.60;;;;;;;7.81;84.19;99159.28;5070869;28;20049;-58
2022/04/08 08:53:23;;;;;;;9.60;1.77;;;;;;;7.80;83.60;99150.25;5074304;28;20215;-63
2022/04/08 08:55:51;;;;;;;7.28;1.58;;;;;;;7.68;84.46;99144.69;5053021;28;20051;-62
2022/04/08 08:58:18;;;;;;;7.20;1.67;;;;;;;7.70;85.18;99134.22;5071866;28;20142;-62
2022/04/08 09:00:45;;;;;;;5.65;1.85;;;;;;;7.57;85.54;99118.81;5064391;28;20706;-62
2022/04/08 09:03:13;;;;;;;10.25;2.28;;;;;;;7.77;86.41;99114.50;5071631;28;20036;-63
2022/04/08 09:05:41;;;;;;;6.28;2.05;;;;;;;7.83;85.99;99102.97;5067774;28;20112;-63
2022/04/08 09:08:09;;;;;;;9.90;2.85;;;;;;;7.68;86.43;99094.56;5072854;28;20045;-63
2022/04/08 09:10:46;;;;;;;9.23;2.42;;;;;;;7.39;87.96;99084.44;5072659;28;20045;-63
2022/04/08 09:13:18;;;;;;;9.93;2.20;;;;;;;7.36;87.93;99076.06;5073800;28;20071;-56
2022/04/08 09:15:57;;;;;;;17.55;6.70;;;;;;;7.27;88.48;99069.88;5074202;28;20041;-56
2022/04/08 09:18:30;;;;;;;7.15;2.20;;;;;;;7.10;88.96;99078.16;5073733;28;20079;-56
2022/04/08 09:21:03;;;;;;;9.03;2.00;;;;;;;7.31;89.85;99077.09;5065543;28;20045;-62
2022/04/08 09:23:33;;;;;;;8.00;2.40;;;;;;;7.31;89.12;99052.44;5086145;28;20286;-62
2022/04/08 09:26:03;;;;;;;9.48;3.38;;;;;;;7.33;89.95;99041.16;5064789;28;20048;-62
2022/04/08 09:28:37;;;;;;;11.85;3.10;;;;;;;7.43;90.04;99040.75;5073694;28;20080;-62
2022/04/08 09:31:05;;;;;;;9.82;2.35;;;;;;;7.52;90.05;99056.00;5076457;28;20645;-63
2022/04/08 09:33:32;;;;;;;12.52;3.78;;;;;;;7.67;90.49;99065.56;5059404;28;20047;-63
2022/04/08 09:36:00;;;;;;;9.73;4.55;;;;;;;7.68;89.05;99070.72;5075144;28;20056;-62
2022/04/08 09:38:30;;;;;;;8.85;3.13;;;;;;;7.64;88.10;99067.03;5075524;28;20041;-64
2022/04/08 09:41:18;;;;;;;10.10;3.53;;;;;;;7.64;88.08;99061.53;5062110;28;20056;-63
2022/04/08 09:44:09;;;;;;;7.88;2.40;;;;;;;7.45;89.35;99087.78;5074881;28;20044;-63
2022/04/08 09:46:42;;;;;;;11.05;2.90;;;;;;;7.49;89.79;99102.44;5076310;28;20049;-63
2022/04/08 09:49:10;;;;;;;10.40;3.10;;;;;;;7.63;90.14;99095.56;5084956;28;20045;-63
2022/04/08 09:51:39;;;;;;;7.15;2.40;;;;;;;7.90;89.60;99075.84;5067887;28;20053;-62
2022/04/08 09:54:09;;;;;;;5.43;2.30;;;;;;;7.87;89.54;99095.69;5073934;28;20048;-64
2022/04/08 09:56:40;;;;;;;9.27;2.30;;;;;;;7.66;89.18;99094.09;5077307;28;20055;-64
2022/04/08 09:59:21;;;;;;;7.75;2.20;;;;;;;7.22;89.00;99086.50;5070194;28;20064;-62
2022/04/08 10:02:09;;;;;;;7.57;1.73;;;;;;;7.10;88.67;99054.34;5054316;28;20049;-61
2022/04/08 10:04:39;;;;;;;5.50;1.83;;;;;;;7.17;89.38;99037.38;5070148;28;20045;-63
2022/04/08 10:07:09;;;;;;;5.88;1.77;;;;;;;7.17;89.63;99076.53;5084888;28;20407;-63
2022/04/08 10:09:47;;;;;;;7.05;2.10;;;;;;;6.93;90.26;99111.91;5069897;28;20067;-63
2022/04/08 10:12:39;;;;;;;8.13;2.70;;;;;;;6.80;91.34;99053.53;5064332;28;20037;-64
2022/04/08 10:15:06;;;;;;;6.03;2.00;;;;;;;6.77;91.38;99108.09;5072717;28;20053;-63
2022/04/08 10:17:34;;;;;;;7.30;2.17;;;;;;;7.36;92.17;99084.28;5066514;28;20063;-69
2022/04/08 10:20:17;;;;;;;5.70;2.35;;;;;;;6.98;89.16;99059.72;5072135;28;20136;-60
2022/04/08 10:23:02;;;;;;;6.88;2.42;;;;;;;6.89;91.08;99061.69;5068575;28;20055;-64
2022/04/08 10:25:38;;;;;;;7.63;2.40;;;;;;;7.02;91.37;99066.16;5061477;28;20064;-63
2022/04/08 10:28:07;;;;;;;5.47;2.30;;;;;;;7.06;90.65;99055.34;5063905;28;20055;-63
2022/04/08 10:30:42;;;;;;;10.90;3.10;;;;;;;7.04;90.96;99047.47;5069624;28;20055;-63
2022/04/08 10:33:26;;;;;;;7.55;3.13;;;;;;;6.86;92.39;99040.47;5069821;28;20048;-64
2022/04/08 10:36:01;;;;;;;8.82;2.70;;;;;;;7.09;91.99;99033.59;5039638;28;20456;-62
2022/04/08 10:38:36;;;;;;;7.43;2.72;;;;;;;7.24;91.47;99004.78;5074264;28;20056;-55
2022/04/08 10:41:08;;;;;;;7.80;2.20;;;;;;;7.37;90.26;98979.09;5064525;28;20052;-59
2022/04/08 10:43:46;;;;;;;5.80;2.55;;;;;;;7.24;89.13;98971.94;5068130;28;20049;-59
2022/04/08 10:46:14;;;;;;;7.55;3.00;;;;;;;7.25;89.43;98944.25;5070913;28;20056;-61
2022/04/08 10:48:42;;;;;;;7.78;2.65;;;;;;;7.35;89.66;98932.06;5070705;28;20047;-59
2022/04/08 10:51:11;;;;;;;7.07;2.92;;;;;;;7.46;89.35;98950.47;5067927;28;20045;-65
2022/04/08 10:53:41;;;;;;;19.83;10.43;;;;;;;7.68;89.40;98972.06;5071529;28;20051;-62
2022/04/08 10:56:10;;;;;;;25.85;14.85;;;;;;;7.86;89.58;98956.25;5068918;28;20060;-63
2022/04/08 10:58:42;;;;;;;8.68;3.70;;;;;;;7.84;88.48;98933.84;5073752;28;20048;-63
2022/04/08 11:01:45;;;;;;;13.43;5.13;;;;;;;7.96;89.34;98985.97;5075978;28;20511;-65
2022/04/08 11:04:12;;;;;;;11.75;4.95;;;;;;;7.23;90.20;98978.56;5060883;28;20045;-63
2022/04/08 11:06:40;;;;;;;9.07;4.25;;;;;;;7.31;92.13;98967.53;5073586;28;20053;-62
2022/04/08 11:09:08;;;;;;;12.52;4.28;;;;;;;7.27;91.79;98968.56;5068541;28;20053;-62
2022/04/08 11:11:37;;;;;;;9.55;4.05;;;;;;;7.65;91.14;98974.66;5090928;28;20048;-63
2022/04/08 11:14:06;;;;;;;8.98;4.38;;;;;;;7.84;90.91;98966.75;5071209;28;20051;-62
2022/04/08 11:16:47;;;;;;;8.82;4.18;;;;;;;8.07;90.01;98964.41;5069521;28;20052;-63
2022/04/08 11:19:19;;;;;;;10.70;4.82;;;;;;;8.08;89.43;98982.44;5069312;28;20045;-64
2022/04/08 11:21:48;;;;;;;7.60;3.30;;;;;;;7.94;89.63;98972.59;5072287;28;20258;-62
2022/04/08 11:24:19;;;;;;;8.38;3.08;;;;;;;7.92;88.31;98966.66;5056357;28;20048;-58
2022/04/08 11:26:51;;;;;;;11.73;3.63;;;;;;;7.96;88.64;98964.84;5073977;28;20057;-57
2022/04/08 11:29:24;;;;;;;6.25;3.30;;;;;;;8.08;88.36;98968.75;5073305;28;20056;-54
2022/04/08 11:31:52;;;;;;;8.93;3.90;;;;;;;8.13;89.53;98958.38;5072769;28;20514;-59
2022/04/08 11:34:27;;;;;;;12.35;4.28;;;;;;;8.45;89.65;98951.25;5074137;28;20052;-58
2022/04/08 11:36:55;;;;;;;7.10;4.03;;;;;;;8.42;89.31;98949.97;5069400;28;20053;-59
2022/04/08 11:39:27;;;;;;;7.53;3.42;;;;;;;8.87;87.73;98942.41;5062531;28;20048;-59
2022/04/08 11:41:56;;;;;;;7.63;3.67;;;;;;;8.75;86.83;98904.00;5069243;28;20072;-57
2022/04/08 11:44:30;;;;;;;8.13;3.75;;;;;;;8.77;87.22;98903.66;5069670;28;20055;-58
2022/04/08 11:47:07;;;;;;;9.20;3.50;;;;;;;8.79;86.67;98940.59;5065424;28;20049;-55